Time;durP1;ratioP1;P1;durP2;ratioP2;P2;SDS_P1;SDS_P2;PMS_P1;PMS_P2;Temp;Humidity;BMP_temperature;BMP_pressure;BME280_temperature;BME280_humidity;BME280_pressure;Samples;Min_cycle;Max_cycle;Signal;HPM_P1;HPM_P2
2022/09/21 00:01:50;;;;;;;12.00;10.90;;;7.70;99.90;;;;;;4943356;29;20653;-83
2022/09/21 00:04:18;;;;;;;12.07;11.00;;;7.70;99.90;;;;;;4947020;29;20277;-83
2022/09/21 00:06:46;;;;;;;11.23;10.33;;;7.70;99.90;;;;;;4941849;29;20203;-83
2022/09/21 00:09:13;;;;;;;11.20;10.20;;;7.60;99.90;;;;;;4939046;29;20730;-83
2022/09/21 00:11:40;;;;;;;12.27;11.27;;;7.60;99.90;;;;;;4946754;28;20245;-83
2022/09/21 00:14:14;;;;;;;11.37;10.37;;;7.50;99.90;;;;;;4950662;29;20199;-83
2022/09/21 00:16:41;;;;;;;11.73;10.83;;;7.40;99.90;;;;;;4941260;29;20213;-84
2022/09/21 00:19:08;;;;;;;11.00;10.10;;;7.30;99.90;;;;;;4946053;29;20198;-83
2022/09/21 00:21:37;;;;;;;11.63;10.63;;;7.40;99.90;;;;;;4950632;29;20230;-83
2022/09/21 00:24:06;;;;;;;11.30;10.30;;;7.30;99.90;;;;;;4939397;29;20252;-83
2022/09/21 00:26:33;;;;;;;11.63;10.73;;;7.20;99.90;;;;;;4941721;29;20201;-83
2022/09/21 00:29:02;;;;;;;11.33;10.43;;;7.20;99.90;;;;;;4943384;29;20223;-83
2022/09/21 00:31:29;;;;;;;11.30;10.27;;;7.20;99.90;;;;;;4938907;29;20224;-83
2022/09/21 00:33:58;;;;;;;11.70;10.80;;;7.20;99.90;;;;;;4939255;29;20197;-83
2022/09/21 00:36:26;;;;;;;11.10;10.30;;;7.20;99.90;;;;;;4944016;29;20229;-83
2022/09/21 00:38:56;;;;;;;11.33;10.20;;;7.10;99.90;;;;;;4945207;29;20237;-83
2022/09/21 00:41:25;;;;;;;11.13;10.23;;;7.20;99.90;;;;;;4942295;29;20324;-83
2022/09/21 00:44:30;;;;;;;11.13;10.23;;;7.10;99.90;;;;;;4941151;29;20209;-83
2022/09/21 00:47:01;;;;;;;11.77;10.77;;;7.10;99.90;;;;;;4943483;29;20193;-83
2022/09/21 00:49:29;;;;;;;11.97;11.03;;;7.00;99.90;;;;;;4941848;29;20307;-83
2022/09/21 00:51:57;;;;;;;11.53;10.63;;;7.00;99.90;;;;;;4946320;29;20220;-83
2022/09/21 00:54:28;;;;;;;11.80;10.90;;;7.00;99.90;;;;;;4942041;29;20203;-83
2022/09/21 00:57:00;;;;;;;11.03;10.23;;;6.90;99.90;;;;;;4957490;29;20204;-83
2022/09/21 00:59:27;;;;;;;12.03;11.03;;;6.90;99.90;;;;;;4949812;29;20187;-82
2022/09/21 01:01:54;;;;;;;12.03;11.03;;;6.90;99.90;;;;;;4949992;29;20223;-83
2022/09/21 01:04:22;;;;;;;11.73;10.80;;;6.80;99.90;;;;;;4945589;29;20224;-83
2022/09/21 01:06:50;;;;;;;11.80;10.87;;;6.80;99.90;;;;;;4952100;29;20205;-83
2022/09/21 01:09:18;;;;;;;11.40;10.40;;;6.80;99.90;;;;;;4954455;29;20228;-83
2022/09/21 01:11:59;;;;;;;11.93;11.03;;;6.70;99.90;;;;;;4945605;29;20219;-83
2022/09/21 01:14:47;;;;;;;11.37;10.37;;;6.60;99.90;;;;;;4941276;29;20260;-83
2022/09/21 01:17:19;;;;;;;11.60;10.70;;;6.60;99.90;;;;;;4952654;29;20205;-83
2022/09/21 01:20:10;;;;;;;11.37;10.47;;;6.60;99.90;;;;;;4947489;29;20187;-83
2022/09/21 01:22:48;;;;;;;11.50;10.47;;;6.60;99.90;;;;;;4951321;29;20262;-82
2022/09/21 01:25:27;;;;;;;11.63;10.63;;;6.50;99.90;;;;;;4942345;29;20208;-83
2022/09/21 01:28:04;;;;;;;11.60;10.70;;;6.50;99.90;;;;;;4956429;29;20195;-83
2022/09/21 01:30:36;;;;;;;11.63;10.63;;;6.50;99.90;;;;;;4948914;29;20223;-83
2022/09/21 01:33:09;;;;;;;11.97;10.93;;;6.40;99.90;;;;;;4950941;29;20686;-83
2022/09/21 01:35:39;;;;;;;12.30;11.40;;;6.50;99.90;;;;;;4946772;29;20195;-83
2022/09/21 01:38:10;;;;;;;12.83;11.67;;;6.50;99.90;;;;;;4949025;28;20192;-83
2022/09/21 01:40:42;;;;;;;11.30;10.40;;;6.50;99.90;;;;;;4942060;29;20228;-83
2022/09/21 01:43:14;;;;;;;12.30;11.20;;;6.40;99.90;;;;;;4946970;29;20619;-83
2022/09/21 01:45:45;;;;;;;11.40;10.50;;;6.30;99.90;;;;;;4944727;29;20243;-83
2022/09/21 01:48:14;;;;;;;11.63;10.70;;;6.20;99.90;;;;;;4948005;29;20189;-82
2022/09/21 01:50:44;;;;;;;11.87;10.93;;;6.20;99.90;;;;;;4950964;29;20246;-83
2022/09/21 01:53:17;;;;;;;11.10;10.23;;;6.30;99.90;;;;;;4943789;29;20756;-83
2022/09/21 01:55:50;;;;;;;12.00;11.07;;;6.20;99.90;;;;;;4948045;29;20206;-83
2022/09/21 01:58:20;;;;;;;12.13;11.13;;;6.20;99.90;;;;;;4939090;29;20236;-83
2022/09/21 02:00:52;;;;;;;12.43;11.37;;;6.20;99.90;;;;;;4959245;28;20226;-83
2022/09/21 02:03:24;;;;;;;11.70;10.70;;;6.10;99.90;;;;;;4948166;29;20199;-83
2022/09/21 02:05:52;;;;;;;11.83;10.80;;;6.00;99.90;;;;;;4947593;29;20202;-83
2022/09/21 02:08:19;;;;;;;11.53;10.73;;;6.00;99.90;;;;;;4947165;29;20204;-83
2022/09/21 02:10:49;;;;;;;11.67;10.77;;;6.00;99.90;;;;;;4951888;29;20219;-83
2022/09/21 02:13:17;;;;;;;12.70;11.57;;;6.00;99.90;;;;;;4940543;29;20267;-83
2022/09/21 02:16:04;;;;;;;12.00;11.17;;;6.00;99.90;;;;;;4947346;29;20199;-83
2022/09/21 02:18:40;;;;;;;12.97;11.87;;;6.00;99.90;;;;;;4946553;29;20196;-82
2022/09/21 02:21:16;;;;;;;13.13;12.13;;;5.90;99.90;;;;;;4948239;29;20223;-83
2022/09/21 02:23:48;;;;;;;12.30;11.10;;;5.90;99.90;;;;;;4946054;29;20250;-83
2022/09/21 02:26:20;;;;;;;12.53;11.53;;;5.80;99.90;;;;;;4945398;29;20669;-83
2022/09/21 02:28:53;;;;;;;12.37;11.03;;;5.80;99.90;;;;;;4956005;29;20210;-82
2022/09/21 02:31:31;;;;;;;12.40;11.40;;;5.80;99.90;;;;;;4940680;29;20731;-83
2022/09/21 02:34:04;;;;;;;12.43;11.53;;;5.70;99.90;;;;;;4955252;29;20598;-83
2022/09/21 02:36:38;;;;;;;12.97;11.97;;;5.70;99.90;;;;;;4947504;29;20211;-82
2022/09/21 02:39:10;;;;;;;12.17;11.27;;;5.60;99.90;;;;;;4946447;29;20198;-83
2022/09/21 02:41:44;;;;;;;13.23;12.13;;;5.60;99.90;;;;;;4954354;29;20222;-83
2022/09/21 02:44:16;;;;;;;12.50;11.50;;;5.70;99.90;;;;;;4948393;29;20214;-83
2022/09/21 02:46:48;;;;;;;12.83;11.67;;;5.70;99.90;;;;;;4941944;29;20202;-84
2022/09/21 02:49:19;;;;;;;12.33;11.47;;;5.70;99.90;;;;;;4940551;28;20220;-83
2022/09/21 02:51:50;;;;;;;12.10;10.90;;;5.60;99.90;;;;;;4941778;29;20716;-79
2022/09/21 02:54:19;;;;;;;12.53;11.60;;;5.60;99.90;;;;;;4949381;28;20199;-77
2022/09/21 02:56:50;;;;;;;12.80;11.70;;;5.70;99.90;;;;;;4961736;28;20265;-80
2022/09/21 02:59:17;;;;;;;12.07;11.00;;;5.70;99.90;;;;;;4951770;28;20278;-80
2022/09/21 03:01:45;;;;;;;12.33;11.40;;;5.60;99.90;;;;;;4953609;28;20269;-79
2022/09/21 03:04:12;;;;;;;12.80;11.60;;;5.60;99.90;;;;;;4953763;29;20351;-79
2022/09/21 03:06:40;;;;;;;13.70;12.67;;;5.50;99.90;;;;;;4952286;29;20620;-79
2022/09/21 03:09:07;;;;;;;12.77;11.77;;;5.50;99.90;;;;;;4954372;29;20199;-80
2022/09/21 03:11:34;;;;;;;12.30;11.40;;;5.40;99.90;;;;;;4953188;29;20237;-79
2022/09/21 03:14:02;;;;;;;12.97;11.93;;;5.40;99.90;;;;;;4953196;28;20199;-80
2022/09/21 03:16:28;;;;;;;13.20;12.20;;;5.40;99.90;;;;;;4943282;29;20206;-82
2022/09/21 03:18:57;;;;;;;12.77;11.57;;;5.30;99.90;;;;;;4941751;29;20200;-79
2022/09/21 03:21:23;;;;;;;12.93;11.73;;;5.30;99.90;;;;;;4950087;29;20224;-80
2022/09/21 03:23:50;;;;;;;12.50;11.50;;;5.30;99.90;;;;;;4947417;29;20633;-80
2022/09/21 03:26:21;;;;;;;12.27;11.37;;;5.30;99.90;;;;;;4946076;29;20206;-80
2022/09/21 03:28:48;;;;;;;12.80;11.47;;;5.30;99.90;;;;;;4953435;29;20249;-80
2022/09/21 03:31:15;;;;;;;12.47;11.57;;;5.30;99.90;;;;;;4945695;28;20688;-80
2022/09/21 03:33:42;;;;;;;12.43;11.53;;;5.30;99.90;;;;;;4947106;29;20481;-80
2022/09/21 03:36:10;;;;;;;12.63;11.73;;;5.20;99.90;;;;;;4949318;29;20199;-80
2022/09/21 03:38:37;;;;;;;12.43;11.43;;;5.20;99.90;;;;;;4944438;29;20203;-80
2022/09/21 03:41:04;;;;;;;12.30;11.40;;;5.10;99.90;;;;;;4947658;29;20204;-79
2022/09/21 03:43:31;;;;;;;12.37;11.27;;;5.10;99.90;;;;;;4948084;29;20199;-79
2022/09/21 03:45:58;;;;;;;14.07;12.90;;;5.10;99.90;;;;;;4939559;29;20254;-79
2022/09/21 03:48:25;;;;;;;14.40;13.20;;;5.20;99.90;;;;;;4943238;29;20262;-79
2022/09/21 03:50:52;;;;;;;14.37;13.00;;;5.20;99.90;;;;;;4949722;29;20281;-79
2022/09/21 03:53:20;;;;;;;14.67;13.47;;;5.20;99.90;;;;;;4944395;29;20664;-79
2022/09/21 03:55:47;;;;;;;13.17;12.17;;;5.20;99.90;;;;;;4954298;29;20242;-79
2022/09/21 03:58:14;;;;;;;13.30;12.20;;;5.20;99.90;;;;;;4946872;29;20191;-80
2022/09/21 04:00:41;;;;;;;13.10;12.13;;;5.10;99.90;;;;;;4950444;29;20223;-79
2022/09/21 04:03:07;;;;;;;14.20;13.10;;;5.10;99.90;;;;;;4945278;29;20191;-79
2022/09/21 04:05:34;;;;;;;13.50;12.40;;;5.10;99.90;;;;;;4947991;29;20278;-80
2022/09/21 04:08:01;;;;;;;13.07;12.17;;;5.10;99.90;;;;;;4944863;29;20250;-80
2022/09/21 04:10:32;;;;;;;14.07;12.90;;;5.10;99.90;;;;;;4946053;29;20210;-79
2022/09/21 04:13:01;;;;;;;14.00;12.90;;;5.10;99.90;;;;;;4947506;28;20205;-79
2022/09/21 04:15:29;;;;;;;14.23;13.23;;;5.10;99.90;;;;;;4942673;29;20207;-81
2022/09/21 04:17:58;;;;;;;13.60;12.57;;;5.00;99.90;;;;;;4945182;28;20211;-79
2022/09/21 04:20:25;;;;;;;13.17;12.17;;;4.90;99.90;;;;;;4943258;28;20229;-80
2022/09/21 04:22:51;;;;;;;14.13;12.93;;;4.80;99.90;;;;;;4939403;29;20626;-79
2022/09/21 04:25:19;;;;;;;13.17;12.07;;;4.80;99.90;;;;;;4945979;29;20447;-79
2022/09/21 04:27:47;;;;;;;13.47;12.50;;;4.80;99.90;;;;;;4950179;29;20199;-79
2022/09/21 04:30:16;;;;;;;14.03;12.93;;;4.70;99.90;;;;;;4955228;28;20629;-80
2022/09/21 04:32:46;;;;;;;13.50;12.50;;;4.70;99.90;;;;;;4949289;29;20238;-80
2022/09/21 04:35:12;;;;;;;14.37;13.27;;;4.70;99.90;;;;;;4947956;29;20207;-80
2022/09/21 04:37:39;;;;;;;13.70;12.50;;;4.70;99.90;;;;;;4952509;29;20498;-80
2022/09/21 04:40:07;;;;;;;14.10;13.00;;;4.70;99.90;;;;;;4950114;29;20719;-80
2022/09/21 04:42:34;;;;;;;13.77;12.70;;;4.70;99.90;;;;;;4958922;28;20203;-80
2022/09/21 04:45:02;;;;;;;14.00;12.80;;;4.70;99.90;;;;;;4951811;29;20231;-80
2022/09/21 04:47:30;;;;;;;13.57;12.57;;;4.70;99.90;;;;;;4948058;29;20192;-79
2022/09/21 04:49:57;;;;;;;13.40;12.50;;;4.60;99.90;;;;;;4946075;29;20258;-80
2022/09/21 04:52:24;;;;;;;13.90;12.77;;;4.60;99.90;;;;;;4941291;29;20195;-80
2022/09/21 04:54:51;;;;;;;14.17;13.07;;;4.50;99.90;;;;;;4951584;28;20195;-80
2022/09/21 04:57:18;;;;;;;13.77;12.67;;;4.60;99.90;;;;;;4947534;29;20206;-79
2022/09/21 04:59:45;;;;;;;14.00;13.00;;;4.60;99.90;;;;;;4957062;29;20203;-79
2022/09/21 05:02:13;;;;;;;13.60;12.43;;;4.70;99.90;;;;;;4953880;29;20199;-80
2022/09/21 05:04:40;;;;;;;12.77;11.87;;;4.60;99.90;;;;;;4953516;29;20257;-80
2022/09/21 05:07:07;;;;;;;14.33;13.23;;;4.60;99.90;;;;;;4956892;29;20631;-80
2022/09/21 05:12:26;;;;;;;14.00;12.90;;;4.50;99.90;;;;;;4904185;29;20283;-79
2022/09/21 05:14:54;;;;;;;13.90;12.80;;;4.50;99.90;;;;;;4946888;29;20258;-79
2022/09/21 05:17:23;;;;;;;14.73;13.53;;;4.50;99.90;;;;;;4956665;29;20203;-80
2022/09/21 05:19:50;;;;;;;13.87;12.67;;;4.60;99.90;;;;;;4955905;29;20222;-80
2022/09/21 05:22:17;;;;;;;13.23;12.23;;;4.60;99.90;;;;;;4956254;29;20207;-80
2022/09/21 05:24:43;;;;;;;13.53;12.33;;;4.60;99.90;;;;;;4957844;29;20588;-80
2022/09/21 05:27:11;;;;;;;13.60;12.60;;;4.50;99.90;;;;;;4957404;29;20241;-79
2022/09/21 05:29:39;;;;;;;13.50;12.50;;;4.50;99.90;;;;;;4957082;28;20202;-79
2022/09/21 05:32:11;;;;;;;13.13;12.23;;;4.50;99.90;;;;;;4956050;29;20219;-79
2022/09/21 05:34:50;;;;;;;13.53;12.43;;;4.40;99.90;;;;;;4956184;29;20206;-80
2022/09/21 05:37:36;;;;;;;13.87;12.87;;;4.50;99.90;;;;;;4945264;29;20363;-79
2022/09/21 05:40:04;;;;;;;13.40;12.50;;;4.50;99.90;;;;;;4953098;29;20233;-80
2022/09/21 05:42:32;;;;;;;13.07;12.17;;;4.60;99.90;;;;;;4948634;29;20199;-79
2022/09/21 05:44:59;;;;;;;13.83;12.80;;;4.60;99.90;;;;;;4952452;29;20203;-79
2022/09/21 05:47:37;;;;;;;13.20;12.17;;;4.60;99.90;;;;;;4947772;28;20203;-80
2022/09/21 05:50:19;;;;;;;12.87;11.97;;;4.60;99.90;;;;;;4947491;29;20225;-79
2022/09/21 05:52:51;;;;;;;13.70;12.50;;;4.70;99.90;;;;;;4945036;29;20199;-80
2022/09/21 05:55:29;;;;;;;13.60;12.50;;;4.80;99.90;;;;;;4939341;29;20208;-79
2022/09/21 05:58:03;;;;;;;13.43;12.33;;;4.90;99.90;;;;;;4944971;29;20218;-79
2022/09/21 06:00:42;;;;;;;13.07;12.03;;;5.10;99.90;;;;;;4943298;29;20651;-79
2022/09/21 06:03:27;;;;;;;12.87;11.77;;;5.20;99.90;;;;;;4946900;29;20254;-80
2022/09/21 06:05:55;;;;;;;13.37;12.30;;;5.30;99.90;;;;;;4948877;29;20206;-80
2022/09/21 06:08:22;;;;;;;13.80;12.60;;;5.40;99.90;;;;;;4945079;29;20207;-79
2022/09/21 06:10:49;;;;;;;13.50;12.50;;;5.50;99.90;;;;;;4951360;29;20250;-79
2022/09/21 06:13:16;;;;;;;12.63;11.77;;;5.60;99.90;;;;;;4946659;29;20208;-80
2022/09/21 06:15:43;;;;;;;13.83;12.63;;;5.70;99.90;;;;;;4947663;29;20672;-79
2022/09/21 06:18:11;;;;;;;12.43;11.53;;;5.70;99.90;;;;;;4946231;29;20195;-80
2022/09/21 06:20:38;;;;;;;13.57;12.57;;;5.80;99.90;;;;;;4947464;29;20585;-79
2022/09/21 06:23:08;;;;;;;13.50;12.37;;;5.90;99.90;;;;;;4945393;29;20196;-80
2022/09/21 06:25:35;;;;;;;12.87;11.83;;;6.00;99.90;;;;;;4947228;29;20195;-79
2022/09/21 06:28:03;;;;;;;14.03;12.90;;;6.10;99.90;;;;;;4939677;29;20227;-81
2022/09/21 06:30:32;;;;;;;13.57;12.67;;;6.10;99.90;;;;;;4952007;29;20215;-80
2022/09/21 06:32:59;;;;;;;12.93;12.03;;;6.20;99.90;;;;;;4945090;29;20631;-79
2022/09/21 06:35:27;;;;;;;13.87;12.77;;;6.30;99.90;;;;;;4947259;29;20205;-80
2022/09/21 06:37:57;;;;;;;12.93;12.03;;;6.30;99.90;;;;;;4948001;29;20196;-80
2022/09/21 06:40:26;;;;;;;13.20;12.30;;;6.30;99.90;;;;;;4950063;29;20280;-80
2022/09/21 06:42:56;;;;;;;13.10;12.10;;;6.40;99.90;;;;;;4945101;29;20239;-80
2022/09/21 06:45:23;;;;;;;12.97;11.93;;;6.50;99.90;;;;;;4947730;29;20277;-79
2022/09/21 06:47:50;;;;;;;13.20;12.20;;;6.50;99.90;;;;;;4946556;29;20211;-80
2022/09/21 06:50:17;;;;;;;13.30;12.30;;;6.60;99.90;;;;;;4951218;29;20479;-80
2022/09/21 06:52:44;;;;;;;13.20;12.20;;;6.60;99.90;;;;;;4951232;29;20595;-80
2022/09/21 06:55:11;;;;;;;12.73;11.83;;;6.70;99.90;;;;;;4948307;29;20267;-80
2022/09/21 06:57:40;;;;;;;13.17;12.17;;;6.80;99.90;;;;;;4946531;29;20310;-80
2022/09/21 07:00:10;;;;;;;13.10;12.07;;;7.00;99.90;;;;;;4945835;29;20216;-79
2022/09/21 07:02:37;;;;;;;12.90;11.90;;;7.20;99.90;;;;;;4947389;29;20197;-81
2022/09/21 07:05:05;;;;;;;12.80;11.70;;;7.50;99.90;;;;;;4937927;29;20671;-81
2022/09/21 07:07:31;;;;;;;10.20;9.40;;;7.80;99.90;;;;;;4950869;29;20678;-81
2022/09/21 07:09:59;;;;;;;7.90;6.70;;;8.20;99.90;;;;;;4942664;29;20302;-81
2022/09/21 07:12:27;;;;;;;7.67;7.07;;;8.60;99.90;;;;;;4946308;29;20229;-81
2022/09/21 07:14:56;;;;;;;8.17;7.27;;;9.20;99.90;;;;;;4947320;29;20691;-80
2022/09/21 07:17:23;;;;;;;9.30;8.43;;;9.70;99.90;;;;;;4947202;29;20261;-81
2022/09/21 07:19:49;;;;;;;8.30;7.70;;;10.10;99.90;;;;;;4946453;29;20198;-81
2022/09/21 07:22:16;;;;;;;7.50;6.90;;;10.50;99.90;;;;;;4945383;29;20196;-80
2022/09/21 07:24:43;;;;;;;12.77;11.77;;;10.80;99.90;;;;;;4950653;29;20208;-81
2022/09/21 07:27:10;;;;;;;9.73;8.83;;;11.10;99.90;;;;;;4947464;29;20230;-82
2022/09/21 07:29:37;;;;;;;10.23;9.27;;;11.20;99.90;;;;;;4951712;29;20290;-82
2022/09/21 07:32:05;;;;;;;11.60;10.60;;;11.50;99.90;;;;;;4950040;29;20222;-81
2022/09/21 07:34:35;;;;;;;11.10;10.10;;;12.00;99.90;;;;;;4948056;29;20188;-81
2022/09/21 07:37:02;;;;;;;10.73;9.73;;;12.20;99.90;;;;;;4949558;29;20195;-81
2022/09/21 07:39:29;;;;;;;10.90;10.00;;;12.30;99.90;;;;;;4948167;29;20496;-81
2022/09/21 07:41:57;;;;;;;10.50;9.60;;;12.60;99.90;;;;;;4949758;29;20720;-81
2022/09/21 07:44:24;;;;;;;10.67;9.67;;;12.80;99.90;;;;;;4952490;29;20208;-80
2022/09/21 07:46:51;;;;;;;10.37;9.57;;;13.20;99.90;;;;;;4953020;29;20200;-82
2022/09/21 07:49:19;;;;;;;11.70;10.63;;;13.60;99.90;;;;;;4951205;29;20206;-82
2022/09/21 07:51:46;;;;;;;10.67;9.87;;;13.30;99.90;;;;;;4944984;29;20223;-82
2022/09/21 07:54:14;;;;;;;11.23;10.37;;;13.70;99.90;;;;;;4951086;29;20201;-83
2022/09/21 07:56:41;;;;;;;10.30;9.50;;;14.00;99.90;;;;;;4947118;29;20200;-81
2022/09/21 07:59:10;;;;;;;10.33;9.53;;;14.30;99.90;;;;;;4953028;29;20673;-82
2022/09/21 08:01:39;;;;;;;11.53;10.67;;;14.70;99.90;;;;;;4949848;29;20241;-82
2022/09/21 08:04:07;;;;;;;11.63;10.63;;;14.40;99.90;;;;;;4947401;29;20241;-81
2022/09/21 08:06:38;;;;;;;12.60;11.60;;;14.50;99.90;;;;;;4944854;29;20199;-82
2022/09/21 08:09:07;;;;;;;11.87;10.87;;;14.30;99.90;;;;;;4945252;29;20200;-81
2022/09/21 08:11:34;;;;;;;12.13;11.13;;;14.20;99.90;;;;;;4952883;29;20249;-81
2022/09/21 08:14:02;;;;;;;13.90;12.80;;;14.60;99.90;;;;;;4946145;29;20675;-81
2022/09/21 08:16:31;;;;;;;13.90;12.70;;;14.80;99.90;;;;;;4948180;29;20353;-81
2022/09/21 08:18:57;;;;;;;14.27;13.07;;;14.70;99.90;;;;;;4946309;29;20567;-81
2022/09/21 08:21:24;;;;;;;13.67;12.47;;;14.90;99.90;;;;;;4950422;29;20274;-81
2022/09/21 08:23:53;;;;;;;13.33;12.30;;;15.00;99.90;;;;;;4950485;29;20194;-81
2022/09/21 08:26:21;;;;;;;13.93;12.83;;;15.20;99.90;;;;;;4942122;29;20203;-82
2022/09/21 08:28:50;;;;;;;13.43;12.13;;;15.00;99.90;;;;;;4951932;29;20198;-81
2022/09/21 08:31:18;;;;;;;13.47;12.27;;;15.10;99.90;;;;;;4944966;29;20221;-81
2022/09/21 08:33:45;;;;;;;8.57;7.73;;;15.20;99.90;;;;;;4946191;29;20310;-82
2022/09/21 08:36:12;;;;;;;12.60;11.50;;;15.20;99.90;;;;;;4946093;29;20197;-81
2022/09/21 08:38:39;;;;;;;12.70;11.73;;;15.10;99.90;;;;;;4940470;29;20211;-82
2022/09/21 08:41:16;;;;;;;9.87;8.87;;;15.20;99.90;;;;;;4950899;29;20673;-81
2022/09/21 08:43:45;;;;;;;6.77;5.93;;;15.20;99.90;;;;;;4942308;29;20660;-82
2022/09/21 08:46:16;;;;;;;6.73;5.27;;;15.30;99.90;;;;;;4951453;29;20289;-81
2022/09/21 08:48:47;;;;;;;5.97;5.30;;;15.30;99.90;;;;;;4945352;29;20258;-82
2022/09/21 08:51:19;;;;;;;10.93;9.83;;;15.40;99.90;;;;;;4943533;29;20215;-82
2022/09/21 08:53:50;;;;;;;6.00;5.37;;;15.70;99.90;;;;;;4942306;29;20199;-82
2022/09/21 08:56:21;;;;;;;7.60;6.87;;;15.50;99.90;;;;;;4948124;29;20206;-81
2022/09/21 08:58:48;;;;;;;11.17;10.07;;;15.60;99.90;;;;;;4952543;29;20258;-82
2022/09/21 09:01:30;;;;;;;10.13;9.33;;;15.80;99.90;;;;;;4951888;29;20274;-80
2022/09/21 09:04:16;;;;;;;7.17;6.47;;;16.20;99.90;;;;;;4946790;29;20206;-82
2022/09/21 09:06:52;;;;;;;6.10;5.03;;;16.60;99.90;;;;;;4948745;29;20604;-81
2022/09/21 09:09:47;;;;;;;9.37;8.47;;;16.40;99.90;;;;;;4951976;29;20203;-81
2022/09/21 09:12:33;;;;;;;10.53;9.80;;;16.80;99.90;;;;;;4949917;28;20262;-81
2022/09/21 09:15:14;;;;;;;9.33;8.63;;;16.80;99.90;;;;;;4955565;29;20211;-82
2022/09/21 09:17:54;;;;;;;7.73;7.03;;;17.00;99.90;;;;;;4956009;29;20676;-81
2022/09/21 09:20:23;;;;;;;11.47;10.47;;;16.90;99.90;;;;;;4956376;29;20230;-82
2022/09/21 09:23:09;;;;;;;11.43;10.53;;;16.80;99.90;;;;;;4954499;29;20680;-82
2022/09/21 09:25:38;;;;;;;11.73;10.73;;;16.80;99.90;;;;;;4954213;29;20198;-81
2022/09/21 09:28:17;;;;;;;8.60;7.83;;;17.00;99.90;;;;;;4956502;29;20210;-82
2022/09/21 09:30:55;;;;;;;10.70;9.90;;;17.20;99.90;;;;;;4953374;29;20234;-82
2022/09/21 09:33:25;;;;;;;10.30;9.50;;;16.80;99.90;;;;;;4954474;29;20920;-81
2022/09/21 09:35:58;;;;;;;9.70;8.97;;;16.70;99.90;;;;;;4956582;29;20200;-82
2022/09/21 09:38:32;;;;;;;10.07;9.33;;;16.80;99.90;;;;;;4956793;29;20222;-82
2022/09/21 09:41:27;;;;;;;10.23;9.30;;;16.90;99.90;;;;;;4953420;29;20223;-82
2022/09/21 09:44:11;;;;;;;5.23;3.50;;;17.00;99.90;;;;;;4952236;29;20269;-82
2022/09/21 09:46:50;;;;;;;5.30;3.40;;;17.30;99.90;;;;;;4967614;28;20625;-81
2022/09/21 09:49:31;;;;;;;7.40;6.67;;;17.00;99.90;;;;;;4954616;29;20211;-82
2022/09/21 09:51:58;;;;;;;9.57;8.77;;;17.20;99.90;;;;;;4955278;29;20218;-81
2022/09/21 09:54:27;;;;;;;9.83;8.93;;;17.10;99.90;;;;;;4955402;29;20199;-82
2022/09/21 09:56:54;;;;;;;8.23;7.63;;;16.90;99.90;;;;;;4956512;29;20205;-82
2022/09/21 09:59:29;;;;;;;8.23;7.63;;;17.00;99.90;;;;;;4956157;29;20242;-82
2022/09/21 10:02:02;;;;;;;3.13;2.83;;;16.90;99.90;;;;;;4955098;29;20217;-82
2022/09/21 10:04:29;;;;;;;2.90;2.70;;;17.10;99.90;;;;;;4956949;29;20210;-82
2022/09/21 10:06:56;;;;;;;8.17;7.63;;;17.00;99.90;;;;;;4953888;29;20200;-82
2022/09/21 10:09:26;;;;;;;8.43;7.83;;;17.00;99.90;;;;;;4954873;29;20211;-82
2022/09/21 10:11:57;;;;;;;7.77;7.27;;;16.80;99.90;;;;;;4955695;28;20210;-82
2022/09/21 10:14:28;;;;;;;8.67;8.07;;;16.90;99.90;;;;;;4953106;29;20215;-82
2022/09/21 10:16:58;;;;;;;8.60;8.00;;;16.90;99.90;;;;;;4956471;29;20195;-82
2022/09/21 10:19:27;;;;;;;8.10;7.40;;;16.50;99.90;;;;;;4960815;29;20208;-81
2022/09/21 10:21:58;;;;;;;7.40;6.80;;;16.30;99.90;;;;;;4960517;29;20222;-82
2022/09/21 10:24:29;;;;;;;6.40;5.80;;;16.40;99.90;;;;;;4956810;29;20193;-82
2022/09/21 10:27:02;;;;;;;6.67;6.10;;;16.30;99.90;;;;;;4959356;29;20198;-82
2022/09/21 10:29:38;;;;;;;6.20;5.70;;;16.30;99.90;;;;;;4953202;29;20265;-82
2022/09/21 10:32:17;;;;;;;8.87;8.10;;;16.40;99.90;;;;;;4958221;29;20218;-81
2022/09/21 10:35:02;;;;;;;8.00;7.40;;;16.00;99.90;;;;;;4957715;29;20249;-83
2022/09/21 10:37:32;;;;;;;8.40;7.80;;;16.10;99.90;;;;;;4957904;29;20209;-82
2022/09/21 10:39:59;;;;;;;8.40;7.50;;;16.30;99.90;;;;;;4958487;29;20230;-82
2022/09/21 10:42:28;;;;;;;8.80;8.20;;;16.30;99.90;;;;;;4958084;29;20191;-82
2022/09/21 10:45:07;;;;;;;8.13;7.60;;;16.30;99.90;;;;;;4956920;29;20202;-83
2022/09/21 10:47:37;;;;;;;8.13;7.33;;;16.20;99.90;;;;;;4967758;28;20207;-82
2022/09/21 10:50:07;;;;;;;6.63;6.13;;;16.50;99.90;;;;;;4957227;29;20226;-81
2022/09/21 10:52:39;;;;;;;8.00;7.40;;;16.50;99.90;;;;;;4949520;29;20281;-80
2022/09/21 10:55:08;;;;;;;8.80;8.10;;;16.40;99.90;;;;;;4956635;29;20203;-82
2022/09/21 10:57:35;;;;;;;9.17;8.27;;;16.00;99.90;;;;;;4952731;29;20199;-81
2022/09/21 11:00:30;;;;;;;8.73;7.93;;;15.60;99.90;;;;;;4956054;29;20217;-82
2022/09/21 11:03:00;;;;;;;7.93;7.33;;;15.60;99.90;;;;;;4955170;29;20256;-82
2022/09/21 11:05:31;;;;;;;7.73;7.23;;;15.70;99.90;;;;;;4971055;28;20206;-82
2022/09/21 11:08:03;;;;;;;7.80;7.10;;;15.90;99.90;;;;;;4953166;29;20257;-81
2022/09/21 11:10:35;;;;;;;8.63;8.03;;;16.10;99.90;;;;;;4970750;28;20225;-82
2022/09/21 11:13:23;;;;;;;4.80;4.40;;;16.30;99.90;;;;;;4956397;29;20699;-83
2022/09/21 11:15:57;;;;;;;3.83;2.30;;;16.40;99.90;;;;;;4946266;29;20217;-82
2022/09/21 11:18:35;;;;;;;2.40;2.20;;;16.50;99.90;;;;;;4954058;29;20198;-83
2022/09/21 11:21:09;;;;;;;2.77;2.30;;;16.60;99.90;;;;;;4953886;29;20365;-82
2022/09/21 11:23:47;;;;;;;3.37;2.50;;;16.70;99.90;;;;;;4950394;29;20197;-82
2022/09/21 11:26:21;;;;;;;7.93;7.20;;;16.90;99.90;;;;;;4952584;29;20257;-82
2022/09/21 11:28:54;;;;;;;6.67;6.30;;;16.90;99.90;;;;;;4954439;29;20208;-82
2022/09/21 11:31:55;;;;;;;7.03;6.43;;;16.90;99.90;;;;;;4952374;29;20301;-83
2022/09/21 11:34:42;;;;;;;5.03;4.73;;;16.80;99.90;;;;;;4933741;28;20275;-82
2022/09/21 11:37:18;;;;;;;3.87;2.60;;;16.80;99.90;;;;;;4947357;29;20198;-82
2022/09/21 11:40:01;;;;;;;8.20;7.60;;;16.70;99.90;;;;;;4942436;29;20225;-83
2022/09/21 11:42:44;;;;;;;7.40;6.90;;;16.70;99.90;;;;;;4943361;29;20206;-81
2022/09/21 11:45:26;;;;;;;7.30;6.90;;;16.80;99.90;;;;;;4950913;29;20249;-82
2022/09/21 11:48:10;;;;;;;7.90;7.30;;;16.90;99.90;;;;;;4945871;29;20269;-83
2022/09/21 11:50:50;;;;;;;7.50;6.97;;;16.90;99.90;;;;;;4947075;29;20695;-82
2022/09/21 11:53:31;;;;;;;7.60;7.10;;;16.80;99.90;;;;;;4943404;29;20802;-82
2022/09/21 11:56:16;;;;;;;2.63;2.43;;;16.80;99.90;;;;;;4938689;29;20609;-82
2022/09/21 11:58:48;;;;;;;3.03;2.83;;;16.40;99.90;;;;;;4941853;29;20741;-82
2022/09/21 12:01:33;;;;;;;8.00;7.30;;;16.10;99.90;;;;;;4943796;29;20227;-83
2022/09/21 12:04:20;;;;;;;4.13;3.83;;;16.10;99.90;;;;;;4953352;29;20221;-84
2022/09/21 12:07:00;;;;;;;2.10;1.90;;;16.20;99.90;;;;;;4947046;29;20349;-81
2022/09/21 12:10:05;;;;;;;4.33;3.87;;;16.10;99.90;;;;;;4945162;29;20277;-81
2022/09/21 12:12:37;;;;;;;7.67;7.27;;;15.90;99.90;;;;;;4948074;29;20711;-81
2022/09/21 12:15:11;;;;;;;8.27;7.77;;;16.00;99.90;;;;;;4943865;29;20208;-82
2022/09/21 12:17:48;;;;;;;8.20;7.80;;;16.00;99.90;;;;;;4953450;28;20206;-81
2022/09/21 12:20:26;;;;;;;8.43;7.83;;;16.10;99.90;;;;;;4939028;28;20244;-82
2022/09/21 12:22:59;;;;;;;7.70;7.20;;;16.20;99.90;;;;;;4947351;29;20190;-81
2022/09/21 12:25:31;;;;;;;7.90;7.40;;;16.20;99.90;;;;;;4944823;29;20558;-82
2022/09/21 12:28:03;;;;;;;8.30;7.80;;;16.10;99.90;;;;;;4946160;29;20191;-81
2022/09/21 12:30:31;;;;;;;7.30;6.80;;;16.10;99.90;;;;;;4943753;29;20701;-82
2022/09/21 12:33:04;;;;;;;7.10;6.70;;;16.20;99.90;;;;;;4947771;29;20273;-82
2022/09/21 12:35:37;;;;;;;7.60;7.10;;;16.30;99.90;;;;;;4944095;29;20206;-82
2022/09/21 12:38:12;;;;;;;7.70;7.00;;;16.30;99.90;;;;;;4944744;29;20211;-81
2022/09/21 12:40:44;;;;;;;6.80;6.40;;;16.50;99.90;;;;;;4944702;29;20261;-82
2022/09/21 12:43:21;;;;;;;9.23;8.63;;;16.50;99.90;;;;;;4942271;29;20202;-82
2022/09/21 12:45:53;;;;;;;2.20;2.00;;;16.30;99.90;;;;;;4946480;29;20202;-82
2022/09/21 12:48:31;;;;;;;7.30;6.90;;;16.00;99.90;;;;;;4956979;29;20203;-82
2022/09/21 12:51:05;;;;;;;7.50;6.93;;;15.60;99.90;;;;;;4949737;29;20227;-81
2022/09/21 12:53:36;;;;;;;7.23;6.77;;;15.50;99.90;;;;;;4946726;29;20205;-82
2022/09/21 12:56:06;;;;;;;7.30;6.90;;;15.40;99.90;;;;;;4948431;29;20300;-82
2022/09/21 12:58:50;;;;;;;6.90;6.60;;;15.40;99.90;;;;;;4946860;29;20206;-81
2022/09/21 13:01:31;;;;;;;7.17;6.77;;;15.40;99.90;;;;;;4939263;29;20218;-82
2022/09/21 13:04:16;;;;;;;7.23;6.73;;;15.50;99.90;;;;;;4945641;29;20190;-81
2022/09/21 13:07:07;;;;;;;7.20;6.80;;;15.80;99.90;;;;;;4948914;29;20208;-82